createdAt,value
2017-05-04T00:00:20.252Z,938.06
2017-05-04T00:01:34.151Z,938.05
2017-05-04T00:02:48.351Z,938.05
2017-05-04T00:04:03.165Z,938.02
2017-05-04T00:05:17.248Z,938.02
2017-05-04T00:06:30.982Z,938
2017-05-04T00:07:45.042Z,937.96
2017-05-04T00:08:58.803Z,937.9
2017-05-04T00:10:13.231Z,937.91
2017-05-04T00:11:27.046Z,937.88
2017-05-04T00:12:40.909Z,937.87
2017-05-04T00:13:55.333Z,937.93
2017-05-04T00:15:09.770Z,937.91
2017-05-04T00:16:23.020Z,937.96
2017-05-04T00:17:37.427Z,937.96
2017-05-04T00:18:51.795Z,938.01
2017-05-04T00:20:06.438Z,937.96
2017-05-04T00:21:20.903Z,937.93
2017-05-04T00:22:35.132Z,937.86
2017-05-04T00:23:49.061Z,937.82
2017-05-04T00:25:03.250Z,937.77
2017-05-04T00:26:16.832Z,937.78
2017-05-04T00:27:31.076Z,937.79
2017-05-04T00:28:44.816Z,937.79
2017-05-04T00:29:59.142Z,937.78
2017-05-04T00:31:13.536Z,937.81
2017-05-04T00:32:27.335Z,937.77
2017-05-04T00:33:41.209Z,937.76
2017-05-04T00:34:55.435Z,937.74
2017-05-04T00:36:09.845Z,937.7
2017-05-04T00:37:24.332Z,937.69
2017-05-04T00:38:38.283Z,937.68
2017-05-04T00:39:52.790Z,937.68
2017-05-04T00:41:07.376Z,937.71
2017-05-04T00:42:21.695Z,937.68
2017-05-04T00:43:35.954Z,937.74
2017-05-04T00:44:50.537Z,937.72
2017-05-04T00:46:04.728Z,937.73
2017-05-04T00:47:17.840Z,937.73
2017-05-04T00:48:30.845Z,937.75
2017-05-04T00:49:43.155Z,937.77
2017-05-04T00:50:56.138Z,937.79
2017-05-04T00:52:08.440Z,937.79
2017-05-04T00:53:21.226Z,937.77
2017-05-04T00:54:33.044Z,937.82
2017-05-04T00:55:45.827Z,937.75
2017-05-04T00:56:58.913Z,937.74
2017-05-04T00:58:11.693Z,937.74
2017-05-04T00:59:24.472Z,937.73
2017-05-04T01:00:37.254Z,937.72
2017-05-04T01:01:50.039Z,937.69
2017-05-04T01:03:02.820Z,937.67
2017-05-04T01:04:15.126Z,937.68
2017-05-04T01:05:27.907Z,937.64
2017-05-04T01:06:40.690Z,937.61
2017-05-04T01:07:53.685Z,937.59
2017-05-04T01:09:05.987Z,937.62
2017-05-04T01:10:18.285Z,937.58
2017-05-04T01:11:31.068Z,937.61
2017-05-04T01:12:43.856Z,937.62
2017-05-04T01:13:56.640Z,937.61
2017-05-04T01:15:08.456Z,937.59
2017-05-04T01:16:20.753Z,937.62
2017-05-04T01:17:33.535Z,937.62
2017-05-04T01:18:59.913Z,937.59
2017-05-04T01:20:12.221Z,937.59
2017-05-04T01:21:25.001Z,937.57
2017-05-04T01:22:37.303Z,937.56
2017-05-04T01:23:50.084Z,937.58
2017-05-04T01:25:02.861Z,937.54
2017-05-04T01:26:14.684Z,937.51
2017-05-04T01:27:26.500Z,937.54
2017-05-04T01:28:39.560Z,937.52
2017-05-04T01:29:52.349Z,937.52
2017-05-04T01:31:05.132Z,937.55
2017-05-04T01:32:17.912Z,937.58
2017-05-04T01:33:30.693Z,937.56
2017-05-04T01:34:43.475Z,937.57
2017-05-04T01:35:56.260Z,937.59
2017-05-04T01:37:08.570Z,937.61
2017-05-04T01:38:21.376Z,937.59
2017-05-04T01:39:34.419Z,937.63
2017-05-04T01:40:47.210Z,937.58
2017-05-04T01:41:59.521Z,937.66
2017-05-04T01:43:12.339Z,937.67
2017-05-04T01:44:25.146Z,937.64
2017-05-04T01:45:37.949Z,937.66
2017-05-04T01:46:50.736Z,937.63
2017-05-04T01:48:03.530Z,937.61
2017-05-04T01:49:15.844Z,937.62
2017-05-04T01:50:28.635Z,937.59
2017-05-04T01:51:41.423Z,937.61
2017-05-04T01:52:54.213Z,937.59
2017-05-04T01:54:06.526Z,937.62
2017-05-04T01:55:19.323Z,937.59
2017-05-04T01:56:32.417Z,937.61
2017-05-04T01:57:45.220Z,937.63
2017-05-04T01:58:58.021Z,937.59
2017-05-04T02:00:10.824Z,937.62
2017-05-04T02:01:23.611Z,937.58
2017-05-04T02:02:35.918Z,937.58
2017-05-04T02:03:48.711Z,937.6
2017-05-04T02:05:01.500Z,937.59
2017-05-04T02:06:14.292Z,937.59
2017-05-04T02:07:27.082Z,937.61
2017-05-04T02:08:39.874Z,937.64
2017-05-04T02:09:52.677Z,937.66
2017-05-04T02:11:05.468Z,937.68
2017-05-04T02:12:17.775Z,937.64
2017-05-04T02:13:30.569Z,937.65
2017-05-04T02:14:42.894Z,937.63
2017-05-04T02:15:55.688Z,937.6
2017-05-04T02:17:08.472Z,937.6
2017-05-04T02:18:35.354Z,937.58
2017-05-04T02:19:48.153Z,937.58
2017-05-04T02:21:00.948Z,937.59
2017-05-04T02:22:13.249Z,937.61
2017-05-04T02:23:26.039Z,937.58
2017-05-04T02:24:38.821Z,937.57
2017-05-04T02:25:51.606Z,937.54
2017-05-04T02:27:04.387Z,937.53
2017-05-04T02:28:17.421Z,937.48
2017-05-04T02:29:30.207Z,937.43
2017-05-04T02:30:42.506Z,937.43
2017-05-04T02:31:55.290Z,937.43
2017-05-04T02:33:08.077Z,937.42
2017-05-04T02:34:20.581Z,937.41
2017-05-04T02:35:33.365Z,937.32
2017-05-04T02:36:46.174Z,937.31
2017-05-04T02:37:58.474Z,937.29
2017-05-04T02:39:10.775Z,937.26
2017-05-04T02:40:23.565Z,937.26
2017-05-04T02:41:36.347Z,937.19
2017-05-04T02:42:49.143Z,937.21
2017-05-04T02:44:01.444Z,937.19
2017-05-04T02:45:14.437Z,937.2
2017-05-04T02:46:27.254Z,937.22
2017-05-04T02:47:40.038Z,937.19
2017-05-04T02:48:52.832Z,937.23
2017-05-04T02:50:05.826Z,937.22
2017-05-04T02:51:18.611Z,937.26
2017-05-04T02:52:31.394Z,937.22
2017-05-04T02:53:44.182Z,937.25
2017-05-04T02:54:56.972Z,937.19
2017-05-04T02:56:09.473Z,937.22
2017-05-04T02:57:22.257Z,937.23
2017-05-04T02:58:34.558Z,937.21
2017-05-04T02:59:47.341Z,937.25
2017-05-04T03:00:59.648Z,937.24
2017-05-04T03:02:11.942Z,937.25
2017-05-04T03:03:24.729Z,937.24
2017-05-04T03:04:37.517Z,937.25
2017-05-04T03:05:50.300Z,937.23
2017-05-04T03:07:03.393Z,937.22
2017-05-04T03:08:15.701Z,937.24
2017-05-04T03:09:28.491Z,937.23
2017-05-04T03:10:41.281Z,937.25
2017-05-04T03:11:54.378Z,937.24
2017-05-04T03:13:06.695Z,937.26
2017-05-04T03:14:19.494Z,937.26
2017-05-04T03:15:31.810Z,937.23
2017-05-04T03:16:44.602Z,937.22
2017-05-04T03:17:57.395Z,937.19
2017-05-04T03:19:10.190Z,937.14
2017-05-04T03:20:22.991Z,937.15
2017-05-04T03:21:35.783Z,937.16
2017-05-04T03:22:48.575Z,937.14
2017-05-04T03:24:01.362Z,937.18
2017-05-04T03:25:14.151Z,937.17
2017-05-04T03:26:25.973Z,937.15
2017-05-04T03:27:38.767Z,937.13
2017-05-04T03:28:51.552Z,937.11
2017-05-04T03:30:03.856Z,937.1
2017-05-04T03:31:16.649Z,937.09
2017-05-04T03:32:29.453Z,937.02
2017-05-04T03:33:42.250Z,936.99
2017-05-04T03:34:54.560Z,936.99
2017-05-04T03:36:07.352Z,936.97
2017-05-04T03:37:19.665Z,936.95
2017-05-04T03:38:31.998Z,937
2017-05-04T03:39:44.788Z,936.97
2017-05-04T03:40:57.580Z,936.98
2017-05-04T03:42:10.376Z,936.96
2017-05-04T03:43:23.166Z,936.92
2017-05-04T03:44:34.507Z,936.9
2017-05-04T03:45:46.814Z,936.93
2017-05-04T03:46:59.613Z,936.92
2017-05-04T03:48:12.407Z,936.92
2017-05-04T03:49:25.202Z,936.89
2017-05-04T03:50:37.534Z,936.92
2017-05-04T03:51:50.327Z,936.91
2017-05-04T03:53:03.109Z,936.91
2017-05-04T03:54:15.889Z,936.93
2017-05-04T03:55:28.493Z,936.9
2017-05-04T03:56:41.279Z,936.88
2017-05-04T03:57:54.057Z,936.85
2017-05-04T03:59:06.356Z,936.76
2017-05-04T04:00:18.657Z,936.76
2017-05-04T04:01:31.437Z,936.78
2017-05-04T04:02:44.223Z,936.74
2017-05-04T04:03:57.022Z,936.7
2017-05-04T04:05:09.808Z,936.7
2017-05-04T04:06:22.592Z,936.66
2017-05-04T04:07:35.372Z,936.65
2017-05-04T04:08:48.158Z,936.62
2017-05-04T04:10:00.463Z,936.61
2017-05-04T04:11:12.763Z,936.6
2017-05-04T04:12:24.879Z,936.64
2017-05-04T04:13:37.660Z,936.64
2017-05-04T04:14:50.485Z,936.62
2017-05-04T04:16:03.265Z,936.61
2017-05-04T04:17:16.140Z,936.58
2017-05-04T04:18:28.490Z,936.57
2017-05-04T04:19:41.270Z,936.52
2017-05-04T04:20:53.095Z,936.53
2017-05-04T04:22:05.879Z,936.57
2017-05-04T04:23:18.660Z,936.6
2017-05-04T04:24:31.441Z,936.59
2017-05-04T04:25:43.742Z,936.63
2017-05-04T04:26:56.520Z,936.64
2017-05-04T04:28:09.503Z,936.61
2017-05-04T04:29:22.292Z,936.61
2017-05-04T04:30:34.592Z,936.61
2017-05-04T04:31:46.896Z,936.59
2017-05-04T04:32:59.682Z,936.57
2017-05-04T04:34:12.765Z,936.59
2017-05-04T04:35:24.587Z,936.6
2017-05-04T04:36:37.369Z,936.59
2017-05-04T04:37:49.188Z,936.58
2017-05-04T04:39:01.975Z,936.6
2017-05-04T04:40:14.755Z,936.57
2017-05-04T04:41:27.536Z,936.57
2017-05-04T04:42:40.318Z,936.56
2017-05-04T04:43:53.114Z,936.57
2017-05-04T04:45:05.725Z,936.53
2017-05-04T04:46:18.505Z,936.5
2017-05-04T04:47:30.326Z,936.51
2017-05-04T04:48:42.634Z,936.49
2017-05-04T04:49:55.131Z,936.45
2017-05-04T04:51:07.909Z,936.48
2017-05-04T04:52:19.723Z,936.47
2017-05-04T04:53:32.502Z,936.41
2017-05-04T04:54:44.800Z,936.38
2017-05-04T04:55:57.585Z,936.38
2017-05-04T04:57:10.368Z,936.39
2017-05-04T04:58:23.153Z,936.44
2017-05-04T04:59:35.457Z,936.41
2017-05-04T05:00:48.245Z,936.44
2017-05-04T05:02:01.025Z,936.44
2017-05-04T05:03:13.324Z,936.43
2017-05-04T05:04:26.106Z,936.48
2017-05-04T05:05:38.923Z,936.5
2017-05-04T05:06:51.523Z,936.47
2017-05-04T05:08:03.827Z,936.44
2017-05-04T05:09:16.125Z,936.45
2017-05-04T05:10:28.909Z,936.47
2017-05-04T05:11:41.898Z,936.41
2017-05-04T05:12:54.679Z,936.38
2017-05-04T05:14:06.493Z,936.35
2017-05-04T05:15:19.283Z,936.3
2017-05-04T05:16:32.063Z,936.28
2017-05-04T05:17:44.842Z,936.24
2017-05-04T05:18:57.160Z,936.26
2017-05-04T05:20:09.939Z,936.22
2017-05-04T05:21:22.240Z,936.22
2017-05-04T05:22:35.320Z,936.2
2017-05-04T05:23:48.098Z,936.17
2017-05-04T05:25:00.885Z,936.13
2017-05-04T05:26:13.186Z,936.11
2017-05-04T05:27:25.485Z,936.12
2017-05-04T05:28:37.988Z,936.1
2017-05-04T05:29:50.296Z,936.05
2017-05-04T05:31:03.077Z,936.07
2017-05-04T05:32:15.861Z,936.01
2017-05-04T05:33:28.940Z,936
2017-05-04T05:34:41.240Z,935.94
2017-05-04T05:35:54.029Z,935.94
2017-05-04T05:37:06.811Z,935.93
2017-05-04T05:38:19.109Z,935.92
2017-05-04T05:39:32.193Z,935.97
2017-05-04T05:40:44.974Z,935.98
2017-05-04T05:41:57.276Z,935.98
2017-05-04T05:43:09.580Z,935.96
2017-05-04T05:44:22.079Z,936.02
2017-05-04T05:45:34.863Z,935.98
2017-05-04T05:46:47.648Z,935.98
2017-05-04T05:48:00.428Z,935.96
2017-05-04T05:49:13.210Z,935.96
2017-05-04T05:50:25.995Z,935.98
2017-05-04T05:51:37.811Z,936
2017-05-04T05:52:50.590Z,935.97
2017-05-04T05:54:03.375Z,935.97
2017-05-04T05:55:15.673Z,935.94
2017-05-04T05:56:28.451Z,935.94
2017-05-04T05:57:40.267Z,935.93
2017-05-04T05:58:53.047Z,935.92
2017-05-04T06:00:05.829Z,935.89
2017-05-04T06:01:18.911Z,935.91
2017-05-04T06:02:31.695Z,935.91
2017-05-04T06:03:44.477Z,935.88
2017-05-04T06:04:57.267Z,935.88
2017-05-04T06:06:10.252Z,935.9
2017-05-04T06:07:22.549Z,935.87
2017-05-04T06:08:34.850Z,935.83
2017-05-04T06:09:47.631Z,935.76
2017-05-04T06:11:00.416Z,935.77
2017-05-04T06:12:13.495Z,935.72
2017-05-04T06:13:26.275Z,935.71
2017-05-04T06:14:39.057Z,935.74
2017-05-04T06:15:51.840Z,935.71
2017-05-04T06:17:04.141Z,935.65
2017-05-04T06:18:16.464Z,935.65
2017-05-04T06:19:29.248Z,935.67
2017-05-04T06:20:42.026Z,935.68
2017-05-04T06:21:54.328Z,935.69
2017-05-04T06:23:07.412Z,935.74
2017-05-04T06:24:20.192Z,935.74
2017-05-04T06:25:32.978Z,935.74
2017-05-04T06:26:45.756Z,935.66
2017-05-04T06:27:58.357Z,935.67
2017-05-04T06:29:11.138Z,935.64
2017-05-04T06:30:23.922Z,935.67
2017-05-04T06:31:36.698Z,935.64
2017-05-04T06:32:49.499Z,935.66
2017-05-04T06:34:01.621Z,935.66
2017-05-04T06:35:13.920Z,935.66
2017-05-04T06:36:26.703Z,935.68
2017-05-04T06:37:39.484Z,935.64
2017-05-04T06:38:52.263Z,935.64
2017-05-04T06:40:05.043Z,935.62
2017-05-04T06:41:16.866Z,935.6
2017-05-04T06:42:29.656Z,935.58
2017-05-04T06:43:42.436Z,935.57
2017-05-04T06:44:55.422Z,935.55
2017-05-04T06:46:07.238Z,935.56
2017-05-04T06:47:20.019Z,935.62
2017-05-04T06:48:32.316Z,935.62
2017-05-04T06:49:45.295Z,935.62
2017-05-04T06:50:58.082Z,935.63
2017-05-04T06:52:10.864Z,935.66
2017-05-04T06:53:23.660Z,935.66
2017-05-04T06:54:35.977Z,935.67
2017-05-04T06:55:48.765Z,935.64
2017-05-04T06:57:00.103Z,935.64
2017-05-04T06:58:12.410Z,935.65
2017-05-04T06:59:25.198Z,935.69
2017-05-04T07:00:37.509Z,935.68
2017-05-04T07:01:50.292Z,935.71
2017-05-04T07:03:03.077Z,935.68
2017-05-04T07:04:15.877Z,935.74
2017-05-04T07:05:27.699Z,935.7
2017-05-04T07:06:40.684Z,935.71
2017-05-04T07:07:53.482Z,935.72
2017-05-04T07:09:06.279Z,935.7
2017-05-04T07:10:19.078Z,935.68
2017-05-04T07:11:32.061Z,935.69
2017-05-04T07:12:44.851Z,935.68
2017-05-04T07:13:57.160Z,935.7
2017-05-04T07:15:09.479Z,935.66
2017-05-04T07:16:21.785Z,935.66
2017-05-04T07:17:34.772Z,935.67
2017-05-04T07:18:47.562Z,935.66
2017-05-04T07:20:00.355Z,935.66
2017-05-04T07:21:12.177Z,935.62
2017-05-04T07:22:24.483Z,935.65
2017-05-04T07:23:36.308Z,935.63
2017-05-04T07:24:49.103Z,935.64
2017-05-04T07:26:01.896Z,935.65
2017-05-04T07:27:14.680Z,935.62
2017-05-04T07:28:27.463Z,935.65
2017-05-04T07:29:40.253Z,935.61
2017-05-04T07:30:53.048Z,935.62
2017-05-04T07:32:04.883Z,935.64
2017-05-04T07:33:17.677Z,935.61
2017-05-04T07:34:29.991Z,935.64
2017-05-04T07:35:42.302Z,935.6
2017-05-04T07:36:54.615Z,935.57
2017-05-04T07:38:06.919Z,935.55
2017-05-04T07:39:19.521Z,935.55
2017-05-04T07:40:31.822Z,935.53
2017-05-04T07:41:44.621Z,935.55
2017-05-04T07:42:57.411Z,935.54
2017-05-04T07:44:10.402Z,935.52
2017-05-04T07:45:22.705Z,935.51
2017-05-04T07:46:35.508Z,935.47
2017-05-04T07:47:47.824Z,935.53
2017-05-04T07:49:00.616Z,935.51
2017-05-04T07:50:13.218Z,935.5
2017-05-04T07:51:26.011Z,935.49
2017-05-04T07:52:38.803Z,935.49
2017-05-04T07:53:51.592Z,935.46
2017-05-04T07:55:04.098Z,935.49
2017-05-04T07:56:16.401Z,935.45
2017-05-04T07:57:28.706Z,935.5
2017-05-04T07:58:41.496Z,935.49
2017-05-04T07:59:54.290Z,935.48
2017-05-04T08:02:47.522Z,935.5
2017-05-04T08:03:59.832Z,935.48
2017-05-04T08:05:11.383Z,935.52
2017-05-04T08:06:24.176Z,935.52
2017-05-04T08:07:36.963Z,935.5
2017-05-04T08:08:49.755Z,935.5
2017-05-04T08:10:02.059Z,935.47
2017-05-04T08:11:13.399Z,935.49
2017-05-04T08:12:25.703Z,935.48
2017-05-04T08:13:38.489Z,935.47
2017-05-04T08:14:51.284Z,935.49
2017-05-04T08:16:04.079Z,935.49
2017-05-04T08:17:16.384Z,935.56
2017-05-04T08:18:28.696Z,935.58
2017-05-04T08:19:40.537Z,935.6
2017-05-04T08:20:52.362Z,935.61
2017-05-04T08:22:04.661Z,935.58
2017-05-04T08:23:16.963Z,935.58
2017-05-04T08:24:29.592Z,935.58
2017-05-04T08:25:42.369Z,935.6
2017-05-04T08:26:55.147Z,935.57
2017-05-04T08:28:08.223Z,935.61
2017-05-04T08:29:20.060Z,935.59
2017-05-04T08:30:32.841Z,935.6
2017-05-04T08:31:45.143Z,935.64
2017-05-04T08:32:58.225Z,935.67
2017-05-04T08:34:11.004Z,935.69
2017-05-04T08:35:23.310Z,935.69
2017-05-04T08:36:36.090Z,935.72
2017-05-04T08:37:48.871Z,935.7
2017-05-04T08:39:01.472Z,935.71
2017-05-04T08:40:13.770Z,935.7
2017-05-04T08:41:26.072Z,935.72
2017-05-04T08:42:38.851Z,935.71
2017-05-04T08:43:51.631Z,935.74
2017-05-04T08:45:04.409Z,935.77
2017-05-04T08:46:17.205Z,935.8
2017-05-04T08:47:29.988Z,935.81
2017-05-04T08:48:41.811Z,935.78
2017-05-04T08:49:54.113Z,935.81
2017-05-04T08:51:06.424Z,935.83
2017-05-04T08:52:19.201Z,935.78
2017-05-04T08:53:31.505Z,935.8
2017-05-04T08:54:44.595Z,935.82
2017-05-04T08:55:57.377Z,935.84
2017-05-04T08:57:10.166Z,935.84
2017-05-04T08:58:21.989Z,935.86
2017-05-04T08:59:33.328Z,935.85
2017-05-04T09:00:45.627Z,935.87
2017-05-04T09:01:57.922Z,935.87
2017-05-04T09:03:10.220Z,935.89
2017-05-04T09:04:22.520Z,935.88
2017-05-04T09:05:35.314Z,935.89
2017-05-04T09:06:48.394Z,935.91
2017-05-04T09:08:00.691Z,935.91
2017-05-04T09:09:12.511Z,935.94
2017-05-04T09:10:24.822Z,935.97
2017-05-04T09:11:37.139Z,936.01
2017-05-04T09:12:49.917Z,936.05
2017-05-04T09:14:02.220Z,936.09
2017-05-04T09:15:14.042Z,936.07
2017-05-04T09:16:26.359Z,936.11
2017-05-04T09:17:38.863Z,936.12
2017-05-04T09:18:51.643Z,936.11
2017-05-04T09:20:04.432Z,936.16
2017-05-04T09:21:16.740Z,936.13
2017-05-04T09:22:29.564Z,936.11
2017-05-04T09:23:42.350Z,936.12
2017-05-04T09:24:55.137Z,936.12
2017-05-04T09:26:07.924Z,936.16
2017-05-04T09:27:20.228Z,936.18
2017-05-04T09:28:32.758Z,936.18
2017-05-04T09:29:45.553Z,936.23
2017-05-04T09:30:58.340Z,936.22
2017-05-04T09:32:10.648Z,936.25
2017-05-04T09:33:23.434Z,936.27
2017-05-04T09:34:36.259Z,936.31
2017-05-04T09:35:49.052Z,936.32
2017-05-04T09:37:01.361Z,936.3
2017-05-04T09:38:14.152Z,936.3
2017-05-04T09:39:26.457Z,936.35
2017-05-04T09:40:39.247Z,936.38
2017-05-04T09:41:52.042Z,936.42
2017-05-04T09:43:04.350Z,936.46
2017-05-04T09:44:17.440Z,936.45
2017-05-04T09:45:29.759Z,936.44
2017-05-04T09:46:42.064Z,936.48
2017-05-04T09:47:54.849Z,936.46
2017-05-04T09:49:07.158Z,936.48
2017-05-04T09:50:20.153Z,936.49
2017-05-04T09:51:32.946Z,936.48
2017-05-04T09:52:45.247Z,936.45
2017-05-04T09:53:58.045Z,936.48
2017-05-04T09:55:10.543Z,936.49
2017-05-04T09:56:22.370Z,936.52
2017-05-04T09:57:35.165Z,936.57
2017-05-04T09:58:47.958Z,936.57
2017-05-04T10:00:00.269Z,936.53
2017-05-04T10:01:12.874Z,936.57
2017-05-04T10:02:25.663Z,936.56
2017-05-04T10:03:38.456Z,936.56
2017-05-04T10:04:51.240Z,936.61
2017-05-04T10:06:03.751Z,936.62
2017-05-04T10:07:16.543Z,936.65
2017-05-04T10:08:29.347Z,936.65
2017-05-04T10:09:42.137Z,936.61
2017-05-04T10:10:54.931Z,936.64
2017-05-04T10:12:07.720Z,936.66
2017-05-04T10:13:19.550Z,936.68
2017-05-04T10:14:31.374Z,936.73
2017-05-04T10:15:44.157Z,936.71
2017-05-04T10:16:56.659Z,936.74
2017-05-04T10:18:09.455Z,936.75
2017-05-04T10:19:22.244Z,936.76
2017-05-04T10:20:34.076Z,936.76
2017-05-04T10:21:46.873Z,936.79
2017-05-04T10:22:59.484Z,936.79
2017-05-04T10:24:11.796Z,936.76
2017-05-04T10:25:24.586Z,936.82
2017-05-04T10:26:36.885Z,936.82
2017-05-04T10:27:49.682Z,936.86
2017-05-04T10:29:02.472Z,936.86
2017-05-04T10:30:15.262Z,936.9
2017-05-04T10:31:27.570Z,936.93
2017-05-04T10:32:40.360Z,936.98
2017-05-04T10:33:53.356Z,936.98
2017-05-04T10:35:06.151Z,937.01
2017-05-04T10:36:18.936Z,937.02
2017-05-04T10:37:31.243Z,937.03
2017-05-04T10:38:44.239Z,937.06
2017-05-04T10:39:57.023Z,937.04
2017-05-04T10:41:09.324Z,937.1
2017-05-04T10:42:21.618Z,937.08
2017-05-04T10:43:33.917Z,937.08
2017-05-04T10:44:46.704Z,937.06
2017-05-04T10:45:59.483Z,937.05
2017-05-04T10:47:12.263Z,937.07
2017-05-04T10:48:24.565Z,937.1
2017-05-04T10:49:36.870Z,937.14
2017-05-04T10:50:49.654Z,937.17
2017-05-04T10:52:02.434Z,937.22
2017-05-04T10:53:15.218Z,937.24
2017-05-04T10:54:27.517Z,937.23
2017-05-04T10:55:40.297Z,937.21
2017-05-04T10:56:53.081Z,937.2
2017-05-04T10:58:05.407Z,937.2
2017-05-04T10:59:17.704Z,937.16
2017-05-04T11:01:57.344Z,937.13
2017-05-04T11:03:10.126Z,937.17
2017-05-04T11:04:22.427Z,937.16
2017-05-04T11:05:35.207Z,937.18
2017-05-04T11:06:47.985Z,937.21
2017-05-04T11:08:00.769Z,937.18
2017-05-04T11:09:13.552Z,937.2
2017-05-04T11:10:26.333Z,937.15
2017-05-04T11:11:39.313Z,937.19
2017-05-04T11:12:52.094Z,937.2
2017-05-04T11:14:04.877Z,937.19
2017-05-04T11:15:17.664Z,937.23
2017-05-04T11:16:30.443Z,937.25
2017-05-04T11:17:42.749Z,937.25
2017-05-04T11:18:55.533Z,937.33
2017-05-04T11:20:08.315Z,937.33
2017-05-04T11:21:21.099Z,937.36
2017-05-04T11:22:34.092Z,937.38
2017-05-04T11:23:46.874Z,937.4
2017-05-04T11:24:59.663Z,937.43
2017-05-04T11:26:12.442Z,937.45
2017-05-04T11:27:25.221Z,937.43
2017-05-04T11:28:37.550Z,937.47
2017-05-04T11:29:50.331Z,937.47
2017-05-04T11:31:03.116Z,937.5
2017-05-04T11:32:15.895Z,937.5
2017-05-04T11:33:28.017Z,937.49
2017-05-04T11:34:40.800Z,937.49
2017-05-04T11:35:53.582Z,937.5
2017-05-04T11:37:06.367Z,937.55
2017-05-04T11:38:18.869Z,937.53
2017-05-04T11:39:31.172Z,937.6
2017-05-04T11:40:43.957Z,937.58
2017-05-04T11:41:56.263Z,937.59
2017-05-04T11:43:09.045Z,937.61
2017-05-04T11:44:20.882Z,937.66
2017-05-04T11:45:33.668Z,937.65
2017-05-04T11:46:45.963Z,937.68
2017-05-04T11:47:58.264Z,937.66
2017-05-04T11:49:10.569Z,937.69
2017-05-04T11:50:23.352Z,937.7
2017-05-04T11:51:36.162Z,937.71
2017-05-04T11:52:48.951Z,937.73
2017-05-04T11:54:01.741Z,937.72
2017-05-04T11:55:14.044Z,937.73
2017-05-04T11:56:26.349Z,937.74
2017-05-04T11:57:39.140Z,937.72
2017-05-04T11:58:51.930Z,937.76
2017-05-04T12:00:04.915Z,937.76
2017-05-04T12:01:16.733Z,937.78
2017-05-04T12:02:29.029Z,937.79
2017-05-04T12:03:41.811Z,937.81
2017-05-04T12:04:53.633Z,937.76
2017-05-04T12:06:06.415Z,937.74
2017-05-04T12:07:18.716Z,937.77
2017-05-04T12:08:31.015Z,937.81
2017-05-04T12:09:43.800Z,937.82
2017-05-04T12:10:56.588Z,937.82
2017-05-04T12:12:09.371Z,937.8
2017-05-04T12:13:21.191Z,937.79
2017-05-04T12:14:33.975Z,937.79
2017-05-04T12:15:45.797Z,937.83
2017-05-04T12:16:58.786Z,937.81
2017-05-04T12:18:11.568Z,937.78
2017-05-04T12:19:23.867Z,937.81
2017-05-04T12:20:36.171Z,937.83
2017-05-04T12:21:49.153Z,937.84
2017-05-04T12:23:01.936Z,937.83
2017-05-04T12:24:14.719Z,937.87
2017-05-04T12:25:26.540Z,937.85
2017-05-04T12:26:38.846Z,937.87
2017-05-04T12:27:51.831Z,937.88
2017-05-04T12:29:04.133Z,937.87
2017-05-04T12:30:16.438Z,937.86
2017-05-04T12:31:28.770Z,937.88
2017-05-04T12:32:41.084Z,937.85
2017-05-04T12:33:53.878Z,937.8
2017-05-04T12:35:06.180Z,937.79
2017-05-04T12:36:18.972Z,937.75
2017-05-04T12:37:31.762Z,937.74
2017-05-04T12:38:44.068Z,937.75
2017-05-04T12:39:56.855Z,937.76
2017-05-04T12:41:08.677Z,937.75
2017-05-04T12:42:21.468Z,937.77
2017-05-04T12:43:34.251Z,937.73
2017-05-04T12:44:47.038Z,937.73
2017-05-04T12:45:59.817Z,937.77
2017-05-04T12:47:12.617Z,937.78
2017-05-04T12:48:24.920Z,937.77
2017-05-04T12:49:37.908Z,937.76
2017-05-04T12:50:50.693Z,937.74
2017-05-04T12:52:03.480Z,937.75
2017-05-04T12:53:15.780Z,937.7
2017-05-04T12:54:28.564Z,937.7
2017-05-04T12:55:40.383Z,937.65
2017-05-04T12:56:52.688Z,937.62
2017-05-04T12:58:04.996Z,937.6
2017-05-04T12:59:16.816Z,937.54
2017-05-04T13:00:29.127Z,937.54
2017-05-04T13:01:40.949Z,937.53
2017-05-04T13:02:53.735Z,937.55
2017-05-04T13:04:06.522Z,937.54
2017-05-04T13:05:19.315Z,937.53
2017-05-04T13:06:32.406Z,937.5
2017-05-04T13:07:44.713Z,937.49
2017-05-04T13:08:57.498Z,937.5
2017-05-04T13:10:10.283Z,937.46
2017-05-04T13:11:22.799Z,937.48
2017-05-04T13:12:34.624Z,937.44
2017-05-04T13:13:47.411Z,937.43
2017-05-04T13:15:00.207Z,937.47
2017-05-04T13:16:12.514Z,937.45
2017-05-04T13:17:24.823Z,937.43
2017-05-04T13:18:37.609Z,937.4
2017-05-04T13:19:50.399Z,937.43
2017-05-04T13:21:02.703Z,937.41
2017-05-04T13:22:14.529Z,937.39
2017-05-04T13:23:27.319Z,937.4
2017-05-04T13:24:40.107Z,937.39
2017-05-04T13:25:52.408Z,937.4
2017-05-04T13:27:05.197Z,937.43
2017-05-04T13:28:17.503Z,937.4
2017-05-04T13:29:30.296Z,937.39
2017-05-04T13:30:42.601Z,937.36
2017-05-04T13:31:55.387Z,937.32
2017-05-04T13:33:08.175Z,937.31
2017-05-04T13:34:20.966Z,937.27
2017-05-04T13:35:32.787Z,937.29
2017-05-04T13:36:45.091Z,937.27
2017-05-04T13:37:57.877Z,937.2
2017-05-04T13:39:10.663Z,937.24
2017-05-04T13:40:23.459Z,937.2
2017-05-04T13:41:36.246Z,937.16
2017-05-04T13:42:49.239Z,937.11
2017-05-04T13:44:01.063Z,937.13
2017-05-04T13:45:13.377Z,937.07
2017-05-04T13:46:26.163Z,937.05
2017-05-04T13:47:38.951Z,937.02
2017-05-04T13:48:51.941Z,936.95
2017-05-04T13:50:04.735Z,936.99
2017-05-04T13:51:17.043Z,936.92
2017-05-04T13:52:29.832Z,936.95
2017-05-04T13:53:42.620Z,936.92
2017-05-04T13:54:54.941Z,936.92
2017-05-04T13:56:07.747Z,936.91
2017-05-04T13:57:20.568Z,936.89
2017-05-04T13:58:33.367Z,936.9
2017-05-04T13:59:46.158Z,936.92
2017-05-04T14:00:58.951Z,936.88
2017-05-04T14:02:11.262Z,936.87
2017-05-04T14:03:23.579Z,936.89
2017-05-04T14:04:36.383Z,936.85
2017-05-04T14:05:49.195Z,936.78
2017-05-04T14:07:01.989Z,936.83
2017-05-04T14:08:14.301Z,936.78
2017-05-04T14:09:26.610Z,936.77
2017-05-04T14:10:38.925Z,936.79
2017-05-04T14:11:51.725Z,936.72
2017-05-04T14:13:04.514Z,936.71
2017-05-04T14:14:17.312Z,936.66
2017-05-04T14:15:30.126Z,936.63
2017-05-04T14:16:42.447Z,936.49
2017-05-04T14:17:55.250Z,936.53
2017-05-04T14:19:07.566Z,936.51
2017-05-04T14:20:20.356Z,936.53
2017-05-04T14:21:32.662Z,936.5
2017-05-04T14:22:45.464Z,936.48
2017-05-04T14:23:58.267Z,936.44
2017-05-04T14:25:11.073Z,936.43
2017-05-04T14:26:22.901Z,936.43
2017-05-04T14:27:35.713Z,936.39
2017-05-04T14:28:48.510Z,936.41
2017-05-04T14:30:00.828Z,936.4
2017-05-04T14:31:12.665Z,936.35
2017-05-04T14:32:24.982Z,936.37
2017-05-04T14:33:37.779Z,936.3
2017-05-04T14:34:50.773Z,936.33
2017-05-04T14:36:03.082Z,936.27
2017-05-04T14:37:15.873Z,936.28
2017-05-04T14:38:28.222Z,936.27
2017-05-04T14:39:41.026Z,936.24
2017-05-04T14:40:53.836Z,936.27
2017-05-04T14:42:06.626Z,936.25
2017-05-04T14:43:19.455Z,936.26
2017-05-04T14:44:32.258Z,936.23
2017-05-04T14:45:45.051Z,936.26
2017-05-04T14:46:57.837Z,936.25
2017-05-04T14:48:10.143Z,936.21
2017-05-04T14:49:21.976Z,936.11
2017-05-04T14:50:34.780Z,936.18
2017-05-04T14:51:47.582Z,936.13
2017-05-04T14:53:00.378Z,936.11
2017-05-04T14:54:13.169Z,936.1
2017-05-04T14:55:25.967Z,936.06
2017-05-04T14:56:38.763Z,936.01
2017-05-04T14:57:50.599Z,936
2017-05-04T14:59:03.435Z,935.97
2017-05-04T15:00:15.748Z,935.94
2017-05-04T15:01:28.055Z,935.99
2017-05-04T15:02:40.563Z,935.98
2017-05-04T15:03:52.869Z,935.94
2017-05-04T15:05:05.666Z,935.91
2017-05-04T15:06:17.982Z,935.92
2017-05-04T15:07:30.501Z,935.91
2017-05-04T15:08:43.295Z,935.94
2017-05-04T15:09:56.097Z,935.94
2017-05-04T15:11:08.889Z,935.97
2017-05-04T15:12:21.209Z,935.93
2017-05-04T15:13:33.526Z,935.94